createdAt,value
2019-02-16T00:00:45.624Z,4.77
2019-02-16T00:03:18.014Z,3.20
2019-02-16T00:05:51.196Z,3.83
2019-02-16T00:08:25.492Z,3.50
2019-02-16T00:11:00.298Z,3.60
2019-02-16T00:13:36.636Z,6.07
2019-02-16T00:16:10.896Z,3.00
2019-02-16T00:18:45.546Z,4.73
2019-02-16T00:21:20.421Z,4.40
2019-02-16T00:24:00.536Z,3.27
2019-02-16T00:26:30.961Z,5.70
2019-02-16T00:29:04.501Z,3.37
2019-02-16T00:31:38.625Z,4.73
2019-02-16T00:34:09.935Z,10.83
2019-02-16T00:36:42.996Z,3.67
2019-02-16T00:39:17.645Z,5.03
2019-02-16T00:41:50.431Z,4.10
2019-02-16T00:44:23.661Z,3.50
2019-02-16T00:46:56.829Z,3.27
2019-02-16T00:49:30.689Z,5.13
2019-02-16T00:52:01.960Z,6.43
2019-02-16T00:54:34.555Z,3.87
2019-02-16T00:57:04.765Z,3.67
2019-02-16T00:59:37.756Z,4.63
2019-02-16T01:02:08.489Z,4.97
2019-02-16T01:04:39.966Z,3.77
2019-02-16T01:07:15.361Z,5.80
2019-02-16T01:09:47.585Z,5.67
2019-02-16T01:12:20.570Z,3.57
2019-02-16T01:14:51.359Z,3.63
2019-02-16T01:17:25.324Z,4.50
2019-02-16T01:19:57.587Z,4.37
2019-02-16T01:22:29.745Z,6.33
2019-02-16T01:25:03.254Z,3.70
2019-02-16T01:27:33.461Z,3.00
2019-02-16T01:30:06.663Z,3.93
2019-02-16T01:32:37.720Z,3.37
2019-02-16T01:35:14.002Z,2.27
2019-02-16T01:37:44.808Z,6.57
2019-02-16T01:40:18.265Z,5.73
2019-02-16T01:42:49.441Z,2.63
2019-02-16T01:45:26.178Z,3.07
2019-02-16T01:47:56.417Z,3.07
2019-02-16T01:50:34.563Z,3.90
2019-02-16T01:53:08.598Z,4.00
2019-02-16T01:55:43.227Z,3.47
2019-02-16T01:58:16.865Z,4.43
2019-02-16T02:00:48.748Z,4.77
2019-02-16T02:05:56.890Z,3.67
2019-02-16T02:08:29.574Z,4.17
2019-02-16T02:11:00.644Z,3.40
2019-02-16T02:13:35.981Z,2.70
2019-02-16T02:16:07.610Z,3.00
2019-02-16T02:18:39.814Z,2.33
2019-02-16T02:21:11.866Z,3.43
2019-02-16T02:23:49.074Z,2.90
2019-02-16T02:26:19.512Z,3.27
2019-02-16T02:28:56.898Z,5.33
2019-02-16T02:31:29.763Z,4.40
2019-02-16T02:36:49.674Z,4.73
2019-02-16T02:39:21.803Z,4.43
2019-02-16T02:41:53.265Z,4.80
2019-02-16T02:44:25.985Z,2.77
2019-02-16T02:46:58.360Z,4.73
2019-02-16T02:49:31.458Z,3.83
2019-02-16T02:52:06.586Z,1.80
2019-02-16T02:54:38.319Z,4.03
2019-02-16T02:57:10.315Z,4.80
2019-02-16T02:59:43.721Z,3.37
2019-02-16T03:04:57.258Z,2.87
2019-02-16T03:07:33.630Z,2.20
2019-02-16T03:10:03.717Z,2.53
2019-02-16T03:12:35.945Z,3.50
2019-02-16T03:15:08.474Z,3.13
2019-02-16T03:17:40.660Z,3.50
2019-02-16T03:20:14.994Z,2.13
2019-02-16T03:23:18.105Z,1.50
2019-02-16T03:25:52.033Z,3.67
2019-02-16T03:31:59.996Z,2.40
2019-02-16T03:34:43.522Z,2.97
2019-02-16T03:37:57.712Z,4.77
2019-02-16T03:40:28.871Z,2.33
2019-02-16T03:43:05.396Z,3.13
2019-02-16T03:45:36.544Z,2.03
2019-02-16T03:48:13.912Z,3.20
2019-02-16T03:50:45.244Z,2.83
2019-02-16T03:53:19.496Z,3.60
2019-02-16T03:55:50.232Z,3.10
2019-02-16T03:58:22.837Z,2.33
2019-02-16T04:00:54.468Z,3.93
2019-02-16T04:03:28.304Z,2.83
2019-02-16T04:05:59.631Z,2.73
2019-02-16T04:08:33.065Z,2.57
2019-02-16T04:11:05.810Z,2.73
2019-02-16T04:13:47.734Z,3.17
2019-02-16T04:16:17.743Z,2.90
2019-02-16T04:18:52.960Z,5.50
2019-02-16T04:21:26.458Z,2.93
2019-02-16T04:24:01.311Z,2.20
2019-02-16T04:26:36.858Z,5.97
2019-02-16T04:29:09.114Z,2.20
2019-02-16T04:31:45.079Z,3.57
2019-02-16T04:34:18.477Z,3.00
2019-02-16T04:36:54.749Z,1.73
2019-02-16T04:39:30.042Z,2.33
2019-02-16T04:42:04.914Z,3.60
2019-02-16T04:44:37.303Z,5.57
2019-02-16T04:47:10.932Z,5.70
2019-02-16T04:49:45.315Z,3.37
2019-02-16T04:52:17.443Z,3.20
2019-02-16T04:54:52.734Z,5.33
2019-02-16T04:57:25.267Z,3.50
2019-02-16T04:59:58.186Z,2.00
2019-02-16T05:02:35.158Z,2.57
2019-02-16T05:05:05.239Z,1.77
2019-02-16T05:07:40.198Z,2.80
2019-02-16T05:10:10.531Z,3.40
2019-02-16T05:12:46.464Z,3.20
2019-02-16T05:15:18.150Z,2.60
2019-02-16T05:17:55.342Z,2.90
2019-02-16T05:20:30.335Z,3.50
2019-02-16T05:23:05.226Z,3.90
2019-02-16T05:25:37.128Z,2.90
2019-02-16T05:28:14.790Z,3.40
2019-02-16T05:30:49.831Z,2.63
2019-02-16T05:33:20.797Z,2.10
2019-02-16T05:35:56.013Z,2.57
2019-02-16T05:38:27.915Z,2.00
2019-02-16T05:41:07.651Z,2.10
2019-02-16T05:43:41.661Z,2.77
2019-02-16T05:46:11.961Z,2.10
2019-02-16T05:48:45.446Z,8.60
2019-02-16T05:51:15.844Z,2.60
2019-02-16T05:53:49.888Z,3.47
2019-02-16T05:56:21.510Z,2.27
2019-02-16T05:58:55.556Z,2.47
2019-02-16T06:01:26.697Z,2.67
2019-02-16T06:04:02.870Z,2.13
2019-02-16T06:06:34.610Z,2.27
2019-02-16T06:09:09.419Z,2.23
2019-02-16T06:11:39.735Z,3.03
2019-02-16T06:14:16.360Z,3.33
2019-02-16T06:16:46.738Z,5.37
2019-02-16T06:19:20.584Z,3.57
2019-02-16T06:21:56.844Z,2.90
2019-02-16T06:24:35.790Z,3.50
2019-02-16T06:27:14.902Z,2.83
2019-02-16T06:29:45.418Z,2.60
2019-02-16T06:32:18.942Z,4.47
2019-02-16T06:35:24.062Z,5.53
2019-02-16T06:37:58.412Z,2.77
2019-02-16T06:40:28.718Z,2.23
2019-02-16T06:42:59.925Z,2.63
2019-02-16T06:45:31.565Z,2.47
2019-02-16T06:48:08.219Z,1.83
2019-02-16T06:50:40.174Z,2.83
2019-02-16T06:53:13.744Z,2.60
2019-02-16T06:55:54.146Z,3.10
2019-02-16T06:58:29.054Z,2.57
2019-02-16T07:03:37.302Z,2.10
2019-02-16T07:06:10.348Z,2.73
2019-02-16T07:08:46.133Z,2.80
2019-02-16T07:11:22.571Z,3.37
2019-02-16T07:13:56.535Z,3.63
2019-02-16T07:16:53.683Z,2.73
2019-02-16T07:19:35.477Z,1.90
2019-02-16T07:22:05.529Z,1.80
2019-02-16T07:24:40.839Z,3.50
2019-02-16T07:27:13.629Z,2.03
2019-02-16T07:29:48.149Z,3.03
2019-02-16T07:32:26.345Z,2.70
2019-02-16T07:35:03.761Z,2.90
2019-02-16T07:37:36.746Z,5.07
2019-02-16T07:40:10.018Z,6.53
2019-02-16T07:43:00.058Z,2.70
2019-02-16T07:45:59.585Z,2.70
2019-02-16T07:48:48.879Z,2.77
2019-02-16T07:52:02.965Z,3.17
2019-02-16T07:54:57.549Z,3.63
2019-02-16T07:57:36.141Z,4.50
2019-02-16T08:00:17.945Z,3.30
2019-02-16T08:03:00.232Z,3.47
2019-02-16T08:05:58.003Z,2.83
2019-02-16T08:08:43.411Z,2.73
2019-02-16T08:11:32.467Z,4.43
2019-02-16T08:14:18.383Z,2.93
2019-02-16T08:17:06.302Z,2.90
2019-02-16T08:19:58.987Z,2.03
2019-02-16T08:22:41.701Z,3.00
2019-02-16T08:25:49.620Z,3.13
2019-02-16T08:28:34.922Z,3.87
2019-02-16T08:31:18.245Z,2.47
2019-02-16T08:34:04.179Z,6.30
2019-02-16T08:36:47.517Z,3.27
2019-02-16T08:39:43.661Z,5.00
2019-02-16T08:42:33.013Z,4.10
2019-02-16T08:45:27.741Z,4.23
2019-02-16T08:48:05.223Z,2.40
2019-02-16T08:50:43.395Z,2.53
2019-02-16T08:53:37.811Z,2.80
2019-02-16T08:56:25.391Z,3.17
2019-02-16T08:59:36.717Z,4.87
2019-02-16T09:02:40.840Z,5.73
2019-02-16T09:05:32.180Z,2.20
2019-02-16T09:08:22.521Z,3.63
2019-02-16T09:11:15.114Z,3.97
2019-02-16T09:14:04.143Z,3.87
2019-02-16T09:17:10.360Z,3.57
2019-02-16T09:19:54.347Z,7.50
2019-02-16T09:22:35.463Z,3.40
2019-02-16T09:25:28.711Z,2.83
2019-02-16T09:28:14.305Z,4.43
2019-02-16T09:31:05.732Z,5.00
2019-02-16T09:33:58.202Z,2.63
2019-02-16T09:36:56.266Z,5.13
2019-02-16T09:39:36.290Z,4.43
2019-02-16T09:42:25.140Z,3.17
2019-02-16T09:45:16.515Z,5.23
2019-02-16T09:48:07.606Z,3.13
2019-02-16T09:50:57.694Z,3.70
2019-02-16T09:53:46.734Z,4.67
2019-02-16T09:56:57.941Z,5.93
2019-02-16T09:59:40.447Z,4.60
2019-02-16T10:02:35.798Z,2.30
2019-02-16T10:05:22.828Z,3.67
2019-02-16T10:08:09.206Z,4.23
2019-02-16T10:10:52.315Z,5.57
2019-02-16T10:13:50.585Z,5.47
2019-02-16T10:16:38.536Z,6.57
2019-02-16T10:19:25.830Z,5.73
2019-02-16T10:22:30.072Z,5.37
2019-02-16T10:25:18.519Z,7.43
2019-02-16T10:28:13.238Z,6.73
2019-02-16T10:31:17.816Z,6.43
2019-02-16T10:33:59.647Z,5.83
2019-02-16T10:36:57.750Z,5.93
2019-02-16T10:39:40.928Z,6.03
2019-02-16T10:42:40.790Z,5.77
2019-02-16T10:45:35.380Z,18.07
2019-02-16T10:48:16.905Z,8.47
2019-02-16T10:51:09.936Z,6.20
2019-02-16T10:53:50.802Z,6.30
2019-02-16T10:56:56.234Z,8.00
2019-02-16T10:59:55.660Z,9.37
2019-02-16T11:02:56.264Z,7.20
2019-02-16T11:05:43.996Z,9.83
2019-02-16T11:08:39.964Z,8.13
2019-02-16T11:11:27.634Z,7.27
2019-02-16T11:14:30.597Z,5.90
2019-02-16T11:17:08.922Z,9.23
2019-02-16T11:19:48.637Z,8.10
2019-02-16T11:22:37.624Z,8.63
2019-02-16T11:25:37.526Z,11.97
2019-02-16T11:28:35.442Z,9.27
2019-02-16T11:31:28.493Z,7.93
2019-02-16T11:34:14.906Z,8.97
2019-02-16T11:37:05.131Z,8.00
2019-02-16T11:39:53.202Z,10.53
2019-02-16T11:43:03.270Z,9.93
2019-02-16T11:45:54.440Z,9.07
2019-02-16T11:48:41.515Z,11.83
2019-02-16T11:51:51.715Z,8.37
2019-02-16T11:54:45.512Z,9.93
2019-02-16T11:57:30.045Z,9.60
2019-02-16T12:00:16.632Z,8.87
2019-02-16T12:03:08.745Z,8.73
2019-02-16T12:05:47.202Z,8.00
2019-02-16T12:08:39.524Z,7.33
2019-02-16T12:11:32.453Z,7.70
2019-02-16T12:14:23.209Z,10.80
2019-02-16T12:17:16.609Z,8.47
2019-02-16T12:19:55.043Z,8.60
2019-02-16T12:22:49.040Z,12.03
2019-02-16T12:25:47.776Z,10.23
2019-02-16T12:28:49.923Z,11.40
2019-02-16T12:31:58.727Z,10.13
2019-02-16T12:34:59.661Z,8.93
2019-02-16T12:37:58.720Z,8.77
2019-02-16T12:40:56.276Z,10.83
2019-02-16T12:43:46.590Z,7.97
2019-02-16T12:46:45.743Z,11.33
2019-02-16T12:49:41.377Z,9.90
2019-02-16T12:52:34.937Z,10.67
2019-02-16T12:55:38.441Z,8.43
2019-02-16T12:58:30.179Z,8.13
2019-02-16T13:01:22.573Z,8.90
2019-02-16T13:04:29.403Z,6.80
2019-02-16T13:07:15.756Z,10.83
2019-02-16T13:10:10.263Z,8.80
2019-02-16T13:13:09.539Z,9.80
2019-02-16T13:16:12.328Z,8.57
2019-02-16T13:19:03.894Z,8.20
2019-02-16T13:22:04.814Z,9.87
2019-02-16T13:25:04.973Z,10.43
2019-02-16T13:39:41.658Z,9.57
2019-02-16T13:42:27.035Z,8.13
2019-02-16T13:45:20.436Z,11.47
2019-02-16T13:48:10.401Z,9.17
2019-02-16T13:51:03.413Z,8.53
2019-02-16T13:53:50.049Z,8.97
2019-02-16T13:57:03.841Z,7.90
2019-02-16T13:59:44.994Z,8.10
2019-02-16T14:02:40.357Z,11.03
2019-02-16T14:05:36.477Z,8.97
2019-02-16T14:08:29.357Z,11.27
2019-02-16T14:11:16.941Z,8.40
2019-02-16T14:14:13.706Z,10.07
2019-02-16T14:17:08.927Z,8.83
2019-02-16T14:19:44.307Z,10.63
2019-02-16T14:22:18.385Z,11.20
2019-02-16T14:24:59.419Z,10.50
2019-02-16T14:27:30.403Z,10.63
2019-02-16T14:30:04.915Z,8.70
2019-02-16T14:32:35.121Z,8.23
2019-02-16T14:38:07.161Z,9.60
2019-02-16T14:40:44.108Z,9.53
2019-02-16T14:43:18.269Z,9.87
2019-02-16T14:45:49.507Z,11.20
2019-02-16T14:48:26.955Z,8.33
2019-02-16T14:50:57.426Z,9.53
2019-02-16T14:53:30.773Z,8.60
2019-02-16T14:56:06.099Z,11.53
2019-02-16T14:58:40.691Z,10.40
2019-02-16T15:01:14.319Z,9.83
2019-02-16T15:03:55.431Z,7.83
2019-02-16T15:06:33.452Z,8.60
2019-02-16T15:09:08.267Z,7.27
2019-02-16T15:11:47.029Z,8.03
2019-02-16T15:16:56.193Z,9.70
2019-02-16T15:19:29.604Z,10.93
2019-02-16T15:22:00.352Z,12.27
2019-02-16T15:24:34.387Z,10.50
2019-02-16T15:27:07.767Z,10.30
2019-02-16T15:29:42.726Z,10.10
2019-02-16T15:32:14.417Z,11.30
2019-02-16T15:34:48.897Z,10.30
2019-02-16T15:37:29.525Z,11.17
2019-02-16T15:40:03.709Z,10.47
2019-02-16T15:42:42.417Z,10.07
2019-02-16T15:45:24.731Z,9.73
2019-02-16T15:47:58.085Z,13.47
2019-02-16T15:50:33.299Z,10.83
2019-02-16T15:53:03.876Z,9.07
2019-02-16T15:55:38.107Z,11.87
2019-02-16T15:58:13.003Z,11.93
2019-02-16T16:00:52.355Z,9.37
2019-02-16T16:03:24.725Z,11.37
2019-02-16T16:05:59.877Z,9.23
2019-02-16T16:08:44.563Z,10.33
2019-02-16T16:11:27.065Z,14.83
2019-02-16T16:14:15.774Z,14.00
2019-02-16T16:17:04.897Z,11.00
2019-02-16T16:19:45.519Z,9.33
2019-02-16T16:22:36.475Z,13.70
2019-02-16T16:25:20.384Z,9.20
2019-02-16T16:28:18.405Z,9.77
2019-02-16T16:31:03.119Z,9.63
2019-02-16T16:34:00.252Z,8.80
2019-02-16T16:36:50.390Z,8.93
2019-02-16T16:39:53.905Z,7.97
2019-02-16T16:42:36.380Z,12.43
2019-02-16T16:45:35.230Z,15.23
2019-02-16T16:48:34.998Z,14.40
2019-02-16T16:51:25.712Z,9.10
2019-02-16T16:54:25.452Z,12.67
2019-02-16T16:57:07.338Z,10.63
2019-02-16T17:00:04.696Z,9.27
2019-02-16T17:02:49.252Z,12.43
2019-02-16T17:05:34.416Z,9.50
2019-02-16T17:08:25.252Z,10.67
2019-02-16T17:11:06.188Z,11.53
2019-02-16T17:14:00.620Z,10.00
2019-02-16T17:17:04.870Z,10.43
2019-02-16T17:19:55.948Z,9.17
2019-02-16T17:22:57.277Z,8.53
2019-02-16T17:25:57.472Z,9.03
2019-02-16T17:28:41.440Z,10.40
2019-02-16T17:31:41.306Z,10.33
2019-02-16T17:34:31.526Z,11.20
2019-02-16T17:37:26.361Z,8.97
2019-02-16T17:40:13.514Z,10.03
2019-02-16T17:43:04.620Z,10.73
2019-02-16T17:45:59.103Z,8.37
2019-02-16T17:48:53.300Z,9.57
2019-02-16T17:51:53.382Z,10.47
2019-02-16T17:54:43.470Z,7.23
2019-02-16T18:00:19.592Z,9.87
2019-02-16T18:03:13.467Z,12.83
2019-02-16T18:06:08.170Z,11.60
2019-02-16T18:09:00.810Z,9.63
2019-02-16T18:11:49.596Z,11.87
2019-02-16T18:14:45.914Z,12.70
2019-02-16T18:17:43.203Z,11.30
2019-02-16T18:20:26.018Z,10.43
2019-02-16T18:23:14.973Z,8.13
2019-02-16T18:26:06.297Z,11.93
2019-02-16T18:28:57.562Z,9.53
2019-02-16T18:31:49.141Z,14.17
2019-02-16T18:34:42.826Z,11.30
2019-02-16T18:37:44.761Z,10.67
2019-02-16T18:40:34.510Z,12.50
2019-02-16T18:43:27.717Z,9.40
2019-02-16T18:46:23.994Z,10.73
2019-02-16T18:49:24.061Z,12.10
2019-02-16T18:52:27.853Z,12.63
2019-02-16T18:55:35.778Z,9.73
2019-02-16T18:58:14.703Z,11.10
2019-02-16T19:01:07.130Z,12.00
2019-02-16T19:03:54.582Z,12.43
2019-02-16T19:06:41.090Z,14.73
2019-02-16T19:09:36.493Z,10.03
2019-02-16T19:12:34.869Z,9.60
2019-02-16T19:15:27.131Z,9.83
2019-02-16T19:18:18.883Z,11.70
2019-02-16T19:21:05.958Z,11.30
2019-02-16T19:23:49.868Z,9.50
2019-02-16T19:26:41.747Z,10.07
2019-02-16T19:29:45.717Z,11.07
2019-02-16T19:32:40.726Z,10.63
2019-02-16T19:35:39.157Z,11.60
2019-02-16T19:38:33.911Z,14.70
2019-02-16T19:41:12.634Z,12.00
2019-02-16T19:44:05.715Z,10.30
2019-02-16T19:47:03.682Z,13.87
2019-02-16T19:50:00.368Z,14.70
2019-02-16T19:52:45.555Z,12.30
2019-02-16T19:55:53.461Z,10.93
2019-02-16T19:58:41.481Z,11.47
2019-02-16T20:01:47.540Z,10.70
2019-02-16T20:04:45.542Z,10.73
2019-02-16T20:07:40.798Z,10.87
2019-02-16T20:10:19.691Z,10.47
2019-02-16T20:13:14.941Z,9.20
2019-02-16T20:15:57.146Z,14.77
2019-02-16T20:19:06.410Z,10.37
2019-02-16T20:21:56.183Z,10.10
2019-02-16T20:24:49.762Z,12.03
2019-02-16T20:27:37.328Z,10.67
2019-02-16T20:30:30.631Z,11.17
2019-02-16T20:33:32.247Z,12.40
2019-02-16T20:36:18.505Z,11.60
2019-02-16T20:39:02.303Z,11.37
2019-02-16T20:41:39.263Z,12.57
2019-02-16T20:44:32.027Z,9.30
2019-02-16T20:47:25.259Z,12.30
2019-02-16T20:50:21.439Z,12.87
2019-02-16T20:56:13.902Z,11.63
2019-02-16T20:59:20.812Z,14.23
2019-02-16T21:02:11.682Z,9.97
2019-02-16T21:05:08.830Z,14.53
2019-02-16T21:08:13.927Z,12.93
2019-02-16T21:10:59.402Z,13.77
2019-02-16T21:13:44.639Z,18.17
2019-02-16T21:16:50.134Z,13.00
2019-02-16T21:19:31.556Z,14.10
2019-02-16T21:22:36.657Z,13.77
2019-02-16T21:25:36.869Z,13.20
2019-02-16T21:28:27.809Z,17.00
2019-02-16T21:31:31.774Z,17.33
2019-02-16T21:34:29.913Z,13.83
2019-02-16T21:37:12.363Z,16.60
2019-02-16T21:40:07.296Z,13.73
2019-02-16T21:42:49.579Z,12.57
2019-02-16T21:45:48.324Z,12.40
2019-02-16T21:48:31.185Z,12.03
2019-02-16T21:51:24.087Z,11.47
2019-02-16T21:54:13.664Z,11.60
2019-02-16T21:57:18.078Z,12.47
2019-02-16T22:00:06.001Z,16.87
2019-02-16T22:05:46.852Z,13.17
2019-02-16T22:08:27.070Z,10.50
2019-02-16T22:11:17.175Z,10.80
2019-02-16T22:13:54.952Z,12.83
2019-02-16T22:19:06.004Z,13.27
2019-02-16T22:21:36.862Z,14.43
2019-02-16T22:24:07.015Z,13.23
2019-02-16T22:26:40.690Z,14.30
2019-02-16T22:29:11.244Z,12.90
2019-02-16T22:31:45.155Z,14.87
2019-02-16T22:34:16.108Z,13.00
2019-02-16T22:36:48.055Z,13.47
2019-02-16T22:39:18.171Z,12.83
2019-02-16T22:41:52.521Z,15.80
2019-02-16T22:44:22.510Z,14.13
2019-02-16T22:46:57.450Z,16.17
2019-02-16T22:49:30.248Z,13.70
2019-02-16T22:52:04.349Z,13.03
2019-02-16T22:54:35.270Z,15.07
2019-02-16T22:57:07.036Z,15.07
2019-02-16T22:59:38.779Z,12.97
2019-02-16T23:02:11.517Z,12.70
2019-02-16T23:04:43.068Z,13.07
2019-02-16T23:07:14.374Z,13.23
2019-02-16T23:09:45.631Z,15.17
2019-02-16T23:12:16.726Z,10.87
2019-02-16T23:14:50.512Z,12.77
2019-02-16T23:17:24.166Z,12.37
2019-02-16T23:20:03.650Z,11.17
2019-02-16T23:22:35.690Z,12.43
2019-02-16T23:25:08.591Z,13.63
2019-02-16T23:27:39.842Z,11.07
2019-02-16T23:30:13.644Z,12.03
2019-02-16T23:32:45.714Z,12.40
2019-02-16T23:35:18.222Z,13.47
2019-02-16T23:37:51.038Z,14.53
2019-02-16T23:40:25.292Z,15.03
2019-02-16T23:42:57.775Z,11.33
2019-02-16T23:45:29.397Z,17.23
2019-02-16T23:48:03.433Z,14.60
2019-02-16T23:50:34.476Z,14.33
2019-02-16T23:53:08.348Z,14.63
2019-02-16T23:55:41.171Z,13.07
2019-02-16T23:58:16.719Z,11.97
